x

East Hatteras - 150 Nm East Of Cape Hatteras (41001) Wave Buoy

9:50pm - Sat 13th Feb 2016 All times are EST. -5 hours from GMT.

  • Sig Wave height 12.8ft
  • Swell Direction
  • Peak Period 10s
  • Average Period 7s
  • Wind
    31mph, 38mph gusts
  • Sea Temp 69°f
  • Air Temp 42°f
  • Sea Pressure 1024.2mb
  • East Hatteras - 150 Nm East Of Cape Hatteras
  • East Hatteras - 150 Nm East Of Cape Hatteras

More Historic Weather Station data

Upgrade to MSW Pro to gain access to the past 30 days of data for over 8000 Wavebouys and Weather Stations around the globe.

Join Pro

Comparision Forecast

View Surf forecast
   
Sat 02/13 9:50pm 13ft 10s 7s 31 38 mph 1024.2mb 69f 42f
9:40pm  -   -   -  29 40 mph 1024mb 69f 43f
9:30pm  -   -   -  29 36 mph 1023.6mb 69f 43f
9:20pm  -   -   -  25 34 mph 1023.6mb 69f 43f
9:10pm  -   -   -  29 38 mph 1023.5mb 69f 43f
9:00pm  -   -   -  27 40 mph 1023.6mb 69f 43f
8:50pm 12ft 9s 6s 29 38 mph 1023.6mb 69f 43f
8:40pm  -   -   -  27 38 mph 1023.4mb 69f 43f
8:30pm  -   -   -  27 38 mph 1023.3mb 69f 43f
8:20pm  -   -   -  29 38 mph 1023.5mb 69f 43f
8:10pm  -   -   -  29 38 mph 1023.4mb 69f 43f
8:00pm  -   -   -  29 38 mph 1023.4mb 69f 43f
7:50pm 13ft 9s 7s 31 40 mph 1023.1mb 69f 43f
7:40pm  -   -   -  27 40 mph 1022.9mb 69f 43f
7:30pm  -   -   -  29 38 mph 1022.9mb 69f 42f
7:20pm  -   -   -  27 38 mph 1022.8mb 69f 40f
7:10pm  -   -   -  31 40 mph 1023mb 69f 42f
7:00pm  -   -   -  29 38 mph 1022.5mb 69f 43f
6:50pm 11.5ft 9s 7s 29 36 mph 1022.4mb 69f 44f
6:40pm  -   -   -  25 34 mph 1022mb 69f 42f
6:30pm  -   -   -  29 40 mph 1022mb 69f 43f
6:20pm  -   -   -  29 43 mph 1021.8mb 69f 43f
6:10pm  -   -   -  29 38 mph 1021.5mb 69f 43f
6:00pm  -   -   -  29 43 mph 1021.4mb 69f 43f
5:50pm 13ft 9s 7s 27 36 mph 1021.1mb 69f 43f
5:40pm  -   -   -  29 40 mph 1021mb 69f 44f
5:30pm  -   -   -  27 38 mph 1021mb 69f 44f
5:20pm  -   -   -  29 38 mph 1020.8mb 69f 44f
5:10pm  -   -   -  29 38 mph 1020.5mb 69f 44f
5:00pm  -   -   -  31 43 mph 1020.5mb 69f 43f
4:50pm 14ft 9s 7s 31 43 mph 1020.1mb 69f 44f
4:40pm  -   -   -  31 43 mph 1020mb 69f 44f
4:30pm  -   -   -  29 38 mph 1020mb 69f 43f
4:20pm  -   -   -  31 43 mph 1020mb 69f 44f
4:10pm  -   -   -  31 40 mph 1019.6mb 69f 44f
4:00pm  -   -   -  31 43 mph 1019.6mb 69f 44f
3:50pm 13.5ft 8s 7s 29 38 mph 1019.5mb 69f 44f
3:40pm  -   -   -  31 43 mph 1019.3mb 69f 45f
3:30pm  -   -   -  31 43 mph 1019mb 69f 45f
3:20pm  -   -   -  31 40 mph 1018.9mb 69f 45f
3:10pm  -   -   -  34 43 mph 1018.5mb 69f 45f
3:00pm  -   -   -  31 45 mph 1018.4mb 69f 45f
2:50pm 13ft 8s 7s 31 43 mph 1018.4mb 69f 45f
2:40pm  -   -   -  27 38 mph 1018.3mb 69f 44f
2:30pm  -   -   -  27 38 mph 1018.4mb 69f 43f
2:20pm  -   -   -  31 40 mph 1018.5mb 69f 45f
2:10pm  -   -   -  31 40 mph 1018.1mb 69f 46f
2:00pm  -   -   -  31 40 mph 1017.8mb 69f 47f
1:50pm 13ft 8s 7s 27 36 mph 1017.8mb 69f 47f
1:40pm  -   -   -  27 36 mph 1017.8mb 69f 47f
1:30pm  -   -   -  29 38 mph 1017.6mb 69f 47f
1:20pm  -   -   -  27 38 mph 1017.8mb 69f 47f
1:10pm  -   -   -  27 36 mph 1017.9mb 69f 46f
1:00pm  -   -   -  29 43 mph 1017.9mb 69f 47f
12:50pm 12ft 8s 7s 25 34 mph 1017.9mb 69f 47f
12:40pm  -   -   -  25 36 mph 1018mb 69f 47f
12:30pm  -   -   -  27 36 mph 1018mb 69f 48f
12:20pm  -   -   -  27 36 mph 1017.9mb 68f 48f
12:10pm  -   -   -  27 36 mph 1017.9mb 68f 48f
12:00pm  -   -   -  29 38 mph 1018mb 68f 48f
11:50am 13ft 8s 7s 29 38 mph 1018mb 68f 49f
11:40am  -   -   -  29 40 mph 1018mb 68f 49f
11:30am  -   -   -  27 36 mph 1018mb 68f 48f
11:20am  -   -   -  27 36 mph 1018mb 68f 48f
11:10am  -   -   -  29 38 mph 1018mb 68f 49f
11:00am  -   -   -  29 40 mph 1017.9mb 68f 49f
10:50am 12.5ft 9s 7s 29 38 mph 1017.9mb 68f 49f
10:40am  -   -   -  29 36 mph 1017.8mb 68f 49f
10:30am  -   -   -  27 36 mph 1017.6mb 68f 49f
10:20am  -   -   -  27 36 mph 1017.6mb 68f 49f
10:10am  -   -   -  27 36 mph 1017.8mb 68f 49f
10:00am  -   -   -  27 34 mph 1017.5mb 68f 49f
9:50am 12ft 11s 7s 27 40 mph 1017.5mb 68f 49f
9:40am  -   -   -  27 36 mph 1017.5mb 68f 49f
9:30am  -   -   -  31 40 mph 1017.4mb 68f 50f
9:20am  -   -   -  29 38 mph 1017mb 68f 50f
9:10am  -   -   -  29 40 mph 1017mb 68f 50f
9:00am  -   -   -  31 43 mph 1017mb 68f 51f
8:50am 12ft 10s 7s 31 40 mph 1016.6mb 68f 51f
8:40am 12ft  -  7s 31 45 mph 1016.5mb 68f 50f
8:30am  -   -   -  27 36 mph 1016.6mb 69f 49f
8:20am  -   -   -  29 38 mph 1016.5mb 69f 51f
8:10am  -   -   -  31 43 mph 1016.1mb 69f 51f
8:00am  -   -   -  31 40 mph 1015.9mb 69f 51f
7:50am 14ft 11s 7s 31 40 mph 1015.9mb 69f 51f
7:40am  -   -   -  31 40 mph 1015.5mb 69f 52f
7:30am  -   -   -  29 43 mph 1015.5mb 69f 51f
7:20am  -   -   -  31 40 mph 1015.5mb 69f 51f
7:10am  -   -   -  29 38 mph 1015mb 69f 52f
7:00am  -   -   -  29 40 mph 1015mb 69f 52f
6:50am 13ft 11s 7s 31 40 mph 1014.8mb 69f 52f
6:40am 13ft  -  7s 29 38 mph 1014.5mb 69f 52f
6:30am  -   -   -  31 43 mph 1014.5mb 69f 52f
6:20am  -   -   -  29 36 mph 1014.1mb 69f 52f
6:10am  -   -   -  29 40 mph 1014.1mb 69f 52f
6:00am  -   -   -  27 36 mph 1013.9mb 69f 52f
5:50am 13ft 11s 7s 27 38 mph 1013.8mb 69f 52f
5:40am  -   -   -  29 36 mph 1013.6mb 69f 52f
5:30am  -   -   -  29 38 mph 1013.5mb 69f 52f
5:20am  -   -   -  29 38 mph 1013.5mb 69f 52f
5:10am  -   -   -  29 38 mph 1013.5mb 69f 53f
5:00am  -   -   -  31 45 mph 1013.3mb 69f 54f
4:50am 13ft 11s 7s 31 40 mph 1012.8mb 69f 54f
4:40am  -   -   -  31 40 mph 1012.6mb 69f 54f
4:30am  -   -   -  29 43 mph 1012.5mb 69f 53f
4:20am  -   -   -  31 38 mph 1012.5mb 69f 54f
4:10am  -   -   -  29 38 mph 1012.4mb 69f 54f
4:00am  -   -   -  29 43 mph 1012.3mb 69f 54f
3:50am 12.5ft 10s 7s 29 38 mph 1012.4mb 69f 54f
3:40am  -   -   -  31 43 mph 1012.5mb 69f 55f
3:30am  -   -   -  29 36 mph 1012.3mb 69f 55f
3:20am  -   -   -  27 36 mph 1012.5mb 69f 55f
3:10am  -   -   -  31 40 mph 1012.5mb 69f 55f
3:00am  -   -   -  29 40 mph 1012.4mb 69f 56f
2:50am 12ft 11s 6s 29 40 mph 1012.4mb 69f 56f
2:40am 12ft  -  6s 31 40 mph 1012.4mb 69f 55f
2:30am  -   -   -  31 45 mph 1012.1mb 69f 56f
2:20am  -   -   -  31 43 mph 1012.3mb 69f 55f
2:10am  -   -   -  34 43 mph 1012.4mb 69f 56f
2:00am  -   -   -  31 45 mph 1012mb 69f 57f
1:50am 12ft 11s 7s 29 36 mph 1011.9mb 69f 57f
1:40am  -   -   -  31 40 mph 1011.9mb 69f 57f
1:30am  -   -   -  31 45 mph 1011.8mb 69f 58f
1:20am  -   -   -  31 40 mph 1011.5mb 69f 58f
1:10am  -   -   -  31 40 mph 1011.5mb 69f 59f
1:00am  -   -   -  31 43 mph 1011.4mb 69f 59f
12:50am 10ft 11s 6s 31 40 mph 1011.3mb 69f 60f
12:40am  -   -   -  31 43 mph 1011.1mb 69f 59f
12:30am  -   -   -  25 38 mph 1011.1mb 69f 59f
12:20am  -   -   -  20 25 mph 1011.3mb 69f 58f
12:10am  -   -   -  20 29 mph 1011.3mb 69f 58f
12:00am  -   -   -  25 31 mph 1011.1mb 69f 59f
Fri 02/12 11:50pm 10.5ft 10s 7s 18 25 mph 1011mb 69f 58f
11:40pm  -   -   -  13 22 mph 1011.1mb 69f 58f
11:30pm  -   -   -  11 18 mph 1011.1mb 69f 57f
11:20pm  -   -   -  7 13 mph 1011mb 69f 57f
11:10pm  -   -   -  9 16 mph 1011.1mb 69f 57f
11:00pm  -   -   -  9 16 mph 1011.3mb 69f 57f
10:50pm 8ft 9s 7s 7 16 mph 1011.1mb 69f 56f
10:40pm  -   -   -  9 16 mph 1011.3mb 69f 56f
10:30pm  -   -   -  9 13 mph 1011.4mb 69f 56f
10:20pm  -   -   -  9 16 mph 1011.5mb 69f 56f
10:10pm  -   -   -  11 18 mph 1011.5mb 69f 57f
10:00pm  -   -   -  13 20 mph 1011.5mb 69f 57f
9:50pm 6ft 6s 5s 11 16 mph 1011.9mb 69f 56f
9:40pm  -   -   -  11 16 mph 1011.9mb 69f 56f
9:30pm  -   -   -  13 18 mph 1011.9mb 69f 56f
9:20pm  -   -   -  13 20 mph 1011.5mb 69f 56f
9:10pm  -   -   -  13 20 mph 1011.5mb 69f 56f
9:00pm  -   -   -  18 22 mph 1011.5mb 69f 56f
8:50pm 6.5ft 7s 5s 18 22 mph 1011.1mb 69f 55f
8:40pm  -   -   -  20 25 mph 1011mb 69f 55f
8:30pm  -   -   -  22 29 mph 1010.8mb 69f 55f
8:20pm  -   -   -  25 36 mph 1010.5mb 69f 55f
8:10pm  -   -   -  25 34 mph 1010.6mb 69f 56f
8:00pm  -   -   -  27 34 mph 1010.5mb 69f 56f
7:50pm 7ft 7s 5s 27 34 mph 1010.3mb 69f 56f
7:40pm  -   -   -  27 36 mph 1010mb 69f 57f
7:30pm  -   -   -  27 34 mph 1009.8mb 69f 58f
7:20pm  -   -   -  25 34 mph 1009.5mb 69f 59f
7:10pm  -   -   -  22 29 mph 1009mb 69f 59f
7:00pm  -   -   -  25 34 mph 1008.9mb 69f 60f
6:50pm 7ft 6s 6s 20 29 mph 1008.5mb 69f 62f
6:40pm  -   -   -  18 38 mph 1008mb 69f 62f
6:30pm  -   -   -  22 40 mph 1008.1mb 69f 64f
6:20pm  -   -   -  27 38 mph 1007.5mb 69f 64f
6:10pm  -   -   -  27 38 mph 1007mb 69f 62f
6:00pm  -   -   -  31 43 mph 1006.3mb 69f 61f
5:50pm 6ft 5s 5s 34 43 mph 1007mb 69f 60f
5:40pm  -   -   -  31 40 mph 1007.5mb 69f 60f
5:30pm  -   -   -  31 38 mph 1008.3mb 69f 60f
5:20pm  -   -   -  29 36 mph 1009.4mb 69f 59f
5:10pm  -   -   -  29 36 mph 1009.6mb 69f 59f
5:00pm  -   -   -  27 34 mph 1010.5mb 69f 58f
4:50pm 4.5ft 8s 6s 27 36 mph 1011.1mb 69f 58f
4:40pm  -   -   -  22 31 mph 1012.1mb 69f 57f
4:30pm  -   -   -  22 31 mph 1013mb 69f 56f
4:20pm  -   -   -  22 29 mph 1012.5mb 69f 56f
4:10pm  -   -   -  20 29 mph 1013.8mb 69f 55f
4:00pm  -   -   -  20 25 mph 1014.5mb 69f 55f
3:50pm 4.5ft 8s 6s 20 25 mph 1015mb 69f 55f
3:40pm  -   -   -  20 25 mph 1015.1mb 69f 55f
3:30pm  -   -   -  18 29 mph 1015.1mb 69f 54f
3:20pm  -   -   -  18 27 mph 1016mb 69f 53f
3:10pm  -   -   -  18 25 mph 1016.4mb 69f 53f
3:00pm  -   -   -  18 25 mph 1016.9mb 69f 53f
2:50pm 5ft 8s 6s 18 22 mph 1017mb 69f 53f
2:40pm 5ft  -  6s 18 25 mph 1017.1mb 69f 54f
2:30pm  -   -   -  16 22 mph 1017.4mb 69f 53f
2:20pm  -   -   -  16 25 mph 1017.9mb 69f 53f
2:10pm  -   -   -  16 22 mph 1018.5mb 69f 53f
2:00pm  -   -   -  16 20 mph 1018.8mb 69f 53f
1:50pm 5.5ft 7s 6s 16 22 mph 1019mb 69f 53f
1:40pm 5.5ft  -  6s 13 22 mph 1019.5mb 69f 52f
1:30pm  -   -   -  13 20 mph 1019.8mb 69f 52f
1:20pm  -   -   -  11 18 mph 1020.5mb 69f 51f
1:10pm  -   -   -  11 18 mph 1020.8mb 69f 51f
1:00pm  -   -   -  9 16 mph 1021mb 69f 51f
12:50pm 5.5ft 8s 6s 11 16 mph 1021.6mb 69f 51f
12:40pm  -   -   -  9 13 mph 1022mb 69f 51f
12:30pm  -   -   -  7 11 mph 1022.3mb 69f 51f
12:20pm  -   -   -  7 16 mph 1022.5mb 69f 51f
12:10pm  -   -   -  7 11 mph 1022.9mb 69f 50f
12:00pm  -   -   -  9 13 mph 1023.3mb 69f 50f
11:50am 6ft 8s 6s 7 11 mph 1023.5mb 69f 50f
11:40am 6ft  -  6s 7 13 mph 1023.6mb 69f 50f
11:30am  -   -   -  9 16 mph 1024mb 69f 50f
11:20am  -   -   -  2 9 mph 1024.3mb 69f 50f
11:10am  -   -   -  2 4 mph 1024.5mb - 50f
11:00am  -   -   -  2 9 mph 1024.7mb 69f 50f
10:50am 6ft 9s 6s 4 11 mph 1024.8mb 69f 50f
10:40am  -   -   -  4 9 mph 1025mb 69f 50f
10:30am  -   -   -  2 7 mph 1025mb 69f 50f
10:20am  -   -   -  4 9 mph 1025.2mb 69f 50f
10:10am  -   -   -  4 7 mph 1025mb 69f 50f
10:00am  -   -   -  4 9 mph - - 49f
9:50am 6ft 7s 6s 2 7 mph 1025.3mb 69f 49f
9:40am 6ft  -  6s 7 11 mph 1025.3mb 69f 49f
9:30am  -   -   -  4 11 mph 1025.3mb 69f 49f
9:20am  -   -   -  7 13 mph 1025mb 69f 49f
9:10am  -   -   -  4 9 mph 1025mb 69f 49f
9:00am  -   -   -  4 11 mph 1025mb 69f 49f
8:50am 8ft 8s 6s 9 13 mph 1024.8mb 69f 49f
8:40am  -   -   -  9 16 mph 1025mb 69f 49f
8:30am  -   -   -  7 13 mph 1024.8mb 69f 49f
8:20am  -   -   -  7 13 mph 1024.8mb 69f 49f
8:10am  -   -   -  11 18 mph 1025mb 69f 49f
8:00am  -   -   -  9 16 mph 1025mb 69f 49f
7:50am 7ft 8s 6s 9 16 mph 1025mb 69f 49f
7:40am  -   -   -  7 13 mph 1025.2mb 69f 49f
7:30am  -   -   -  9 13 mph 1025mb 69f 49f
7:20am  -   -   -  9 13 mph 1025mb 69f 48f
7:10am  -   -   -  11 18 mph 1025.3mb 69f 48f
7:00am  -   -   -  13 20 mph 1025.3mb 69f 48f
6:50am 7ft 8s 6s 9 18 mph 1025.3mb 69f 48f
6:40am  -   -   -  11 18 mph 1025.3mb 69f 48f
6:30am  -   -   -  9 16 mph 1025.3mb 69f 48f
6:20am  -   -   -  11 16 mph 1025.3mb 69f 48f
6:10am  -   -   -  11 18 mph 1025.5mb 69f 48f
6:00am  -   -   -  13 20 mph 1025.3mb 69f 48f
5:50am 8ft 8s 6s 13 20 mph 1025.3mb 69f 48f
5:40am  -   -   -  13 22 mph 1025.3mb 69f 48f
5:30am  -   -   -  13 22 mph 1025.3mb 69f 48f
5:20am  -   -   -  16 22 mph 1025.3mb 69f 48f
5:10am  -   -   -  18 27 mph 1025.5mb 69f 48f
5:00am  -   -   -  18 25 mph 1025.3mb 69f 48f
4:50am 8ft 8s 6s 18 25 mph 1025.3mb 69f 48f
4:40am  -   -   -  18 27 mph 1025.3mb 69f 48f
4:30am  -   -   -  20 27 mph 1025.3mb 69f 48f
4:20am  -   -   -  20 29 mph 1025.3mb 69f 48f
4:10am  -   -   -  20 27 mph 1025.3mb 69f 48f
4:00am  -   -   -  20 29 mph 1025.3mb 69f 48f
3:50am 8.5ft 8s 6s 20 29 mph 1025.3mb 69f 49f
3:40am  -   -   -  20 29 mph 1025.3mb 69f 48f
3:30am  -   -   -  20 29 mph 1025mb 69f 48f
3:20am  -   -   -  18 27 mph 1025.3mb 69f 48f
3:10am  -   -   -  20 27 mph 1025mb 69f 49f
3:00am  -   -   -  20 29 mph 1025mb 69f 48f
2:50am 8ft 9s 6s 22 29 mph 1025.2mb 69f 48f
2:40am  -   -   -  20 27 mph 1025.2mb 69f 49f
2:30am  -   -   -  20 29 mph 1025mb 69f 48f
2:20am  -   -   -  22 29 mph 1025mb 69f 48f
2:10am  -   -   -  20 29 mph 1025mb - 48f
2:00am  -   -   -  22 34 mph 1024.8mb 69f 48f
1:50am 9ft 8s 6s 22 31 mph 1024.8mb 69f 48f
1:40am  -   -   -  22 29 mph 1024.8mb 69f 49f
1:30am  -   -   -  20 29 mph 1024.8mb 69f 48f
1:20am  -   -   -  22 31 mph 1025mb 69f 48f
1:10am  -   -   -  22 36 mph 1025mb 69f 48f
1:00am  -   -   -  22 29 mph 1025mb 69f 48f
12:50am 9ft 8s 6s 22 29 mph 1024.8mb 69f 48f
12:40am  -   -   -  20 31 mph 1024.8mb 69f 48f
12:30am  -   -   -  22 29 mph 1024.8mb 69f 48f
12:20am  -   -   -  20 31 mph 1025mb 69f 48f
12:10am  -   -   -  22 31 mph 1025mb 69f 48f
12:00am  -   -   -  20 31 mph 1024.8mb 69f 48f
Thu 02/11 11:50pm 9ft 8s 6s 22 31 mph 1024.8mb 69f 48f
11:40pm  -   -   -  22 31 mph 1024.8mb 69f 47f
11:30pm  -   -   -  22 29 mph 1024.8mb 69f 48f
11:20pm  -   -   -  22 31 mph 1024.7mb 69f 48f
11:10pm  -   -   -  22 29 mph 1024.7mb 69f 47f
11:00pm  -   -   -  22 29 mph 1024.7mb 69f 47f
10:50pm 9ft 8s 6s 20 29 mph 1024.5mb 69f 47f
10:40pm  -   -   -  20 29 mph 1024.5mb 69f 47f
10:30pm  -   -   -  22 31 mph 1024.3mb 69f 47f
10:20pm  -   -   -  22 40 mph 1024.3mb 69f 47f
10:10pm  -   -   -  25 31 mph 1024.2mb 69f 47f
10:00pm  -   -   -  22 29 mph 1024mb 69f 47f
9:50pm 9.5ft 8s 6s 25 31 mph 1024mb 69f 47f
9:40pm  -   -   -  22 34 mph 1023.9mb 69f 47f
9:30pm  -   -   -  22 27 mph 1023.9mb 69f 47f
9:20pm  -   -   -  22 31 mph 1023.6mb 69f 47f
9:10pm  -   -   -  22 31 mph 1023.6mb 69f 47f
9:00pm  -   -   -  22 31 mph 1023.5mb 69f 47f
8:50pm 9ft 8s 6s 22 29 mph 1023.5mb 69f 47f
8:40pm  -   -   -  22 29 mph 1023.4mb 69f 47f
8:30pm  -   -   -  22 31 mph 1023.1mb 69f 47f
8:20pm  -   -   -  22 31 mph 1023mb 69f 47f
8:10pm  -   -   -  22 31 mph 1023mb 69f 47f
8:00pm  -   -   -  22 31 mph 1022.8mb 69f 47f
7:50pm 10ft 8s 6s 20 29 mph 1022.8mb 69f 47f
7:40pm  -   -   -  25 31 mph 1022.5mb 69f 47f
7:30pm  -   -   -  25 34 mph 1022.5mb 69f 47f
7:20pm  -   -   -  25 34 mph 1022.3mb 69f 47f
7:10pm  -   -   -  22 34 mph 1022mb 69f 46f
7:00pm  -   -   -  25 31 mph 1022mb 69f 47f
6:50pm 11.5ft 8s 7s 25 31 mph 1021.9mb 69f 47f
6:40pm  -   -   -  27 34 mph 1021.8mb - 47f
6:30pm  -   -   -  25 34 mph 1021.6mb 69f 47f
6:20pm  -   -   -  25 34 mph 1021.5mb 69f 47f
6:10pm  -   -   -  25 34 mph 1021.3mb 69f 47f
6:00pm  -   -   -  25 36 mph 1021mb 69f 48f
5:50pm 11ft 8s 6s 27 34 mph 1021mb 69f 47f
5:40pm  -   -   -  27 36 mph 1020.6mb 69f 47f
5:30pm  -   -   -  29 36 mph 1020.5mb 69f 48f
5:20pm  -   -   -  29 36 mph 1020.5mb 69f 48f
5:10pm  -   -   -  25 36 mph 1020.4mb 69f 47f
5:00pm  -   -   -  27 34 mph 1020.3mb 69f 48f
4:50pm 11.5ft 9s 7s 27 36 mph 1020.1mb 69f 48f
4:40pm  -   -   -  29 38 mph 1020mb 69f 48f
4:30pm  -   -   -  29 36 mph 1019.8mb 69f 48f
4:20pm  -   -   -  29 38 mph 1019.6mb 69f 48f
4:10pm  -   -   -  27 38 mph 1019.6mb 69f 47f
4:00pm  -   -   -  27 40 mph 1019.5mb 69f 47f
3:50pm 11.5ft 9s 7s 27 34 mph 1019.5mb 69f 48f
3:40pm  -   -   -  29 40 mph 1019.5mb 69f 48f
3:30pm  -   -   -  27 38 mph 1019.3mb 69f 47f
3:20pm  -   -   -  27 38 mph 1019.1mb 69f 47f
3:10pm  -   -   -  27 38 mph 1019mb 69f 47f
3:00pm  -   -   -  27 36 mph 1019mb 69f 47f
2:50pm 13ft 9s 7s 27 36 mph 1018.9mb 69f 47f
2:40pm  -   -   -  27 36 mph 1018.6mb 69f 47f
2:30pm  -   -   -  27 36 mph 1018.6mb 69f 47f
2:20pm  -   -   -  27 38 mph 1018.5mb 69f 47f
2:10pm  -   -   -  27 36 mph 1018.4mb 69f 47f
2:00pm  -   -   -  27 38 mph 1018.3mb 69f 47f
1:50pm 13ft 10s 7s 27 36 mph 1018.3mb 69f 47f
1:40pm 13ft  -  7s 27 36 mph 1018.3mb 69f 47f
1:30pm  -   -   -  27 38 mph 1018.1mb 69f 47f
1:20pm  -   -   -  27 36 mph 1018.3mb 69f 47f
1:10pm  -   -   -  27 36 mph 1018.5mb 69f 47f
1:00pm  -   -   -  29 38 mph 1018.5mb 69f 47f
12:50pm 14ft 9s 7s 27 36 mph 1018.6mb 69f 47f
12:40pm  -   -   -  27 36 mph 1018.8mb 69f 47f
12:30pm  -   -   -  29 38 mph 1018.9mb 69f 47f
12:20pm  -   -   -  27 38 mph 1019mb 69f 47f
12:10pm  -   -   -  27 36 mph 1019.1mb 69f 46f
12:00pm  -   -   -  27 34 mph 1019.3mb 69f 46f
11:50am 13ft 9s 7s 27 36 mph 1019.4mb 69f 46f
11:40am  -   -   -  27 38 mph 1019.4mb 69f 46f
11:30am  -   -   -  27 38 mph 1019.4mb 69f 46f
11:20am  -   -   -  29 38 mph 1019.4mb 69f 46f
11:10am  -   -   -  27 38 mph 1019.1mb 69f 46f
11:00am  -   -   -  27 38 mph 1019mb 69f 46f
10:50am 13.5ft 10s 7s 29 36 mph 1019.1mb 69f 46f
10:40am  -   -   -  27 36 mph 1019mb 69f 46f
10:30am  -   -   -  27 34 mph 1019.1mb 69f 46f
10:20am  -   -   -  27 38 mph 1019.1mb 69f 46f
10:10am  -   -   -  27 38 mph 1019mb 69f 46f
10:00am  -   -   -  29 40 mph 1019mb 69f 46f
9:50am 14.5ft 10s 7s 27 40 mph 1018.9mb 69f 46f
9:40am  -   -   -  29 40 mph 1018.9mb 69f 46f
9:30am 14.5ft  -  7s 29 40 mph 1018.8mb 69f 46f
9:20am  -   -   -  29 40 mph 1018.8mb 69f 46f
9:10am  -   -   -  31 43 mph 1018.5mb 69f 46f
9:00am  -   -   -  31 40 mph 1018.5mb 69f 46f
8:50am 16ft 9s 8s 29 40 mph 1018.3mb 69f 46f
8:40am  -   -   -  29 43 mph 1018.3mb 69f 46f
8:30am  -   -   -  31 45 mph 1018mb 69f 46f
8:20am  -   -   -  31 45 mph 1017.9mb 69f 47f
8:10am  -   -   -  31 43 mph 1017.5mb 69f 47f
8:00am  -   -   -  31 45 mph 1017.5mb 69f 47f
7:50am 15.5ft 11s 7s 34 43 mph 1017.3mb 69f 47f
7:40am  -   -   -  34 49 mph 1017mb 69f 47f
7:30am  -   -   -  31 40 mph 1016.6mb 69f 47f
7:20am  -   -   -  34 45 mph 1016.8mb 69f 47f
7:10am  -   -   -  34 43 mph 1016.5mb 69f 47f
7:00am  -   -   -  34 45 mph 1016.5mb 69f 48f
6:50am 15.5ft 11s 7s 34 47 mph 1016.4mb 69f 47f
6:40am  -   -   -  31 43 mph 1016.4mb 69f 47f
6:30am  -   -   -  34 43 mph 1016.4mb 69f 47f
6:20am  -   -   -  34 47 mph 1016mb 69f 47f
6:10am  -   -   -  34 45 mph 1016mb 69f 47f
6:00am  -   -   -  34 45 mph 1015.9mb 69f 47f
5:50am 15.5ft 11s 7s 34 45 mph 1015.8mb 69f 47f
5:40am 15.5ft  -  7s 34 45 mph 1015.5mb 69f 48f
5:30am  -   -   -  36 47 mph 1015.3mb 69f 48f
5:20am  -   -   -  31 43 mph 1015mb 69f 48f
5:10am  -   -   -  31 45 mph 1014.8mb 69f 47f
5:00am  -   -   -  34 45 mph 1014.8mb 69f 48f
4:50am 15ft 9s 7s 36 45 mph 1014.3mb 69f 47f
4:40am  -   -   -  36 47 mph 1014.3mb 69f 48f
4:30am  -   -   -  34 49 mph 1014mb 69f 49f
4:20am  -   -   -  36 47 mph 1014mb 69f 49f
4:10am  -   -   -  36 47 mph 1014mb 69f 48f
4:00am  -   -   -  38 49 mph 1013.9mb 69f 49f
3:50am 16ft 11s 7s 34 45 mph 1013.5mb 69f 49f
3:40am  -   -   -  36 49 mph 1013.4mb 69f 50f
3:30am  -   -   -  34 47 mph 1013.1mb 69f 50f
3:20am  -   -   -  34 45 mph 1013mb 69f 51f
3:10am  -   -   -  34 45 mph 1013mb 69f 52f
3:00am  -   -   -  34 43 mph 1012.6mb 69f 52f
2:50am 15ft 11s 7s 34 43 mph 1012.5mb 69f 52f
2:40am  -   -   -  34 45 mph 1012.3mb 69f 52f
2:30am  -   -   -  34 45 mph 1012mb 69f 51f
2:20am  -   -   -  36 47 mph 1011.9mb 69f 51f
2:10am  -   -   -  34 45 mph 1011.6mb - 50f
2:00am  -   -   -  29 40 mph 1011.9mb 69f 50f
1:50am 14.5ft 9s 7s 34 47 mph 1012mb 69f 49f
1:40am  -   -   -  27 40 mph 1012mb 69f 49f
1:30am  -   -   -  27 36 mph 1012.3mb 69f 48f
1:20am  -   -   -  31 38 mph 1012.4mb 69f 49f
1:10am  -   -   -  29 40 mph 1012mb 69f 50f
1:00am  -   -   -  31 40 mph 1012mb 69f 50f
12:50am 14ft 10s 7s 31 40 mph 1012mb 69f 50f
12:40am  -   -   -  31 43 mph 1011.9mb 69f 50f
12:30am  -   -   -  31 38 mph 1012mb 69f 50f
12:20am  -   -   -  29 49 mph 1011.9mb 69f 51f
12:10am  -   -   -  31 43 mph 1011.9mb 69f 51f
12:00am  -   -   -  31 40 mph 1011.5mb 69f 51f
Wed 02/10 11:50pm 14.5ft 11s 7s 31 40 mph 1011.4mb 69f 50f
11:40pm  -   -   -  29 40 mph 1011.4mb 69f 50f
11:30pm  -   -   -  29 40 mph - - 50f
11:20pm  -   -   -  29 43 mph 1011.5mb 69f 49f
11:10pm  -   -   -  31 43 mph 1011.9mb 69f 48f
11:00pm  -   -   -  27 43 mph 1011.5mb 69f 48f
10:50pm 14ft 10s 7s 29 40 mph 1011.5mb 69f 48f
10:40pm  -   -   -  29 40 mph 1011.5mb 69f 48f
10:30pm  -   -   -  31 40 mph 1011.1mb 69f 49f
10:20pm  -   -   -  29 38 mph 1010.9mb 69f 50f
10:10pm  -   -   -  25 36 mph 1010.9mb 69f 48f
10:00pm  -   -   -  31 45 mph 1011mb 69f 49f
9:50pm 15ft 8s 7s 31 38 mph 1010.5mb 69f 51f
9:40pm  -   -   -  31 43 mph 1010.8mb 69f 52f
9:30pm  -   -   -  29 40 mph 1010.5mb 69f 52f
9:20pm  -   -   -  29 38 mph 1010.5mb 69f 52f
9:10pm  -   -   -  29 43 mph 1010.4mb 69f 52f
9:00pm  -   -   -  29 38 mph 1010.3mb 69f 52f
8:50pm 13.5ft 11s 7s 31 40 mph 1010.5mb 69f 52f
8:40pm  -   -   -  31 43 mph 1010.3mb 69f 52f
8:30pm  -   -   -  29 43 mph 1010mb 69f 52f
8:20pm  -   -   -  25 34 mph 1010.3mb 69f 50f
8:10pm  -   -   -  18 36 mph 1010.5mb 69f 47f
8:00pm  -   -   -  25 34 mph 1010.8mb 69f 49f
7:50pm 13ft 10s 7s 22 31 mph 1010.5mb 69f 49f
7:40pm  -   -   -  25 36 mph 1010.5mb 69f 49f
7:30pm  -   -   -  25 36 mph 1010.4mb 69f 49f
7:20pm  -   -   -  27 36 mph 1010.3mb 69f 50f
7:10pm  -   -   -  27 36 mph 1010.4mb 69f 50f
7:00pm  -   -   -  29 38 mph 1010.5mb 69f 50f
6:50pm 12ft 10s 7s 29 36 mph 1010.3mb 69f 51f
6:40pm  -   -   -  29 38 mph 1010mb 69f 51f
6:30pm  -   -   -  29 40 mph 1010mb 69f 50f
6:20pm  -   -   -  27 38 mph 1010mb 69f 51f
6:10pm  -   -   -  27 40 mph 1010mb 69f 50f
6:00pm  -   -   -  20 31 mph 1010.3mb 69f 50f
5:50pm 13ft 9s 8s 22 31 mph 1010mb 69f 51f
5:40pm  -   -   -  22 29 mph 1010mb 69f 51f
5:30pm  -   -   -  25 34 mph 1010mb 69f 51f
5:20pm  -   -   -  25 34 mph 1009.8mb 69f 51f
5:10pm  -   -   -  22 36 mph 1009.8mb 69f 51f
5:00pm  -   -   -  22 31 mph 1009.8mb 69f 51f
4:50pm 14ft 10s 8s 25 34 mph 1009.6mb 69f 51f
4:40pm  -   -   -  22 31 mph 1009.8mb 69f 51f
4:30pm  -   -   -  25 36 mph 1009.6mb 69f 51f
4:20pm  -   -   -  25 34 mph 1009.8mb 69f 52f
4:10pm  -   -   -  25 31 mph 1009.8mb 69f 51f
4:00pm  -   -   -  25 36 mph 1009.8mb 69f 51f
3:50pm 14ft 11s 8s 25 34 mph 1009.8mb 69f 51f
3:40pm  -   -   -  25 38 mph 1009.6mb 69f 50f
3:30pm  -   -   -  22 34 mph 1009.5mb 69f 51f
3:20pm  -   -   -  25 34 mph 1009.4mb 69f 51f
3:10pm  -   -   -  25 36 mph 1009.3mb 69f 51f
3:00pm  -   -   -  25 34 mph 1009.4mb 69f 51f
2:50pm 15ft 10s 8s 27 36 mph 1009.4mb 69f 51f
2:40pm  -   -   -  27 36 mph 1009.5mb 69f 51f
2:30pm  -   -   -  27 36 mph 1009.5mb 69f 51f
2:20pm  -   -   -  27 36 mph 1009.5mb 69f 51f
2:10pm  -   -   -  29 36 mph 1009.5mb 69f 51f
2:00pm  -   -   -  27 38 mph 1009.5mb 69f 51f
1:50pm 15.5ft 11s 8s 29 38 mph 1009.5mb 69f 51f
1:40pm  -   -   -  29 38 mph 1009.6mb 69f 51f
1:30pm  -   -   -  29 43 mph 1009.8mb 69f 51f
1:20pm  -   -   -  29 40 mph 1009.6mb 69f 51f
1:10pm  -   -   -  31 40 mph 1009.6mb 69f 51f
1:00pm  -   -   -  31 43 mph 1009.8mb 69f 50f
12:50pm 17ft 8s 8s 31 43 mph 1009.9mb 69f 50f
12:40pm  -   -   -  31 43 mph 1009.8mb 69f 51f
12:30pm  -   -   -  31 40 mph 1009.8mb 69f 51f
12:20pm  -   -   -  31 43 mph 1010mb 69f 51f
12:10pm  -   -   -  31 40 mph 1010mb 69f 51f
12:00pm  -   -   -  31 40 mph 1010.1mb 69f 51f
11:50am 17.5ft 11s 8s 34 45 mph 1010.3mb 69f 51f
11:40am  -   -   -  34 45 mph 1010.3mb 69f 51f
11:30am  -   -   -  34 43 mph 1010.3mb 69f 51f
11:20am  -   -   -  34 47 mph 1010.3mb 69f 51f
11:10am  -   -   -  34 45 mph 1010.1mb 70f 52f
11:00am  -   -   -  34 45 mph 1010.1mb 70f 50f
10:50am 16.5ft 11s 8s 34 47 mph 1010.3mb 70f 51f
10:40am  -   -   -  34 45 mph 1010.3mb 70f 51f
10:30am  -   -   -  34 45 mph 1010.1mb 70f 51f
10:20am  -   -   -  34 43 mph 1009.9mb 70f 51f
10:10am  -   -   -  34 47 mph 1010.1mb 70f 51f
10:00am  -   -   -  34 47 mph 1010mb 70f 51f
9:50am 18.5ft 11s 8s 34 45 mph 1010mb 70f 51f
9:40am  -   -   -  34 45 mph 1009.8mb 70f 52f
9:30am  -   -   -  36 45 mph 1009.5mb 70f 51f
9:20am  -   -   -  31 45 mph 1009.5mb 70f 50f
9:10am  -   -   -  34 49 mph 1009.5mb 70f 51f
9:00am  -   -   -  36 43 mph 1009.1mb 70f 52f
8:50am 18.5ft 11s 8s 36 47 mph 1008.8mb 70f 53f
8:40am  -   -   -  34 47 mph 1008.5mb 70f 53f
8:30am  -   -   -  34 45 mph 1008.3mb 70f 54f
8:20am  -   -   -  34 47 mph 1008mb 70f 54f
8:10am  -   -   -  36 45 mph 1007.8mb 70f 54f
8:00am  -   -   -  29 43 mph 1007.8mb - -
7:50am 16ft 11s 8s 34 47 mph 1007.9mb 70f 53f
7:40am  -   -   -  34 47 mph 1007.8mb 70f 53f
7:30am  -   -   -  36 51 mph 1007.8mb 70f 54f
7:20am  -   -   -  29 47 mph 1007.3mb 70f 53f
7:10am  -   -   -  34 47 mph 1007.4mb 70f 53f
7:00am  -   -   -  34 45 mph 1007.4mb 70f 54f
6:50am 15.5ft 11s 8s 34 43 mph 1007mb 70f 54f
6:40am  -   -   -  36 45 mph 1007mb 70f 54f
6:30am  -   -   -  29 40 mph 1006.9mb 70f 53f
6:20am  -   -   -  34 47 mph 1007.1mb 70f 53f
6:10am  -   -   -  34 49 mph 1007mb 70f 53f
6:00am  -   -   -  25 40 mph 1007mb 70f 52f
5:50am 15ft 12s 7s 31 40 mph 1007.4mb 71f 52f
5:40am 15ft  -  7s 31 40 mph 1007mb 71f 53f
5:30am  -   -   -  34 43 mph 1007mb 71f 53f
5:20am  -   -   -  29 45 mph 1006.9mb 71f 53f
5:10am  -   -   -  29 40 mph 1006.9mb 71f 53f
5:00am  -   -   -  34 45 mph 1006.8mb 71f 52f
4:50am 15ft 12s 8s 31 47 mph 1006.8mb 71f 53f
4:40am  -   -   -  27 40 mph 1006.5mb 71f 53f
4:30am  -   -   -  29 38 mph 1006.5mb 71f 53f
4:20am  -   -   -  31 43 mph 1006.5mb 71f 53f
4:10am  -   -   -  29 43 mph 1006.5mb 71f 54f
4:00am  -   -   -  29 40 mph 1006.1mb 71f 54f